Airfield :
LOGIN :

Register | Disclaimer

   EN    FR    IT 

 










Legend :    VFR   Marginal VFR   IFR   Intensive IFR   Very Intensive IFR
Visi :
Ceiling :
>= 8 km
>= 3000ft
5 to 8 km
1000 to 3000 ft
1500m to 5 km
500 to 1000 ft
800 to 1500m
200 to 500 ft
< 800m
< 200 ft
Symbols :   Thunderstorms  Fog  Heavy snow  Heavy precipitations  Wind > 20 kt
SIGMETs :     Misc.  Thunderstorms  Icing  Turbulence  Mountain Waves  Volcanic Ashes







- Airport Elevation : 370 ft


EBBE - Beauvechain AB

CURRENT METAR :
  • 170725Z VRB02KT 7000 FEW020 BKN250 14/12 Q1023 WHT BLU TEMPO WHT

EXPIRED METARs :
  • 170655Z 18003KT 7000 FEW020 BKN250 13/12 Q1022 WHT BLU TEMPO WHT
  • 170625Z 20004KT 7000 FEW020 BKN250 13/12 Q1022 WHT BLU TEMPO WHT
  • 170609Z 21004KT 9999 FEW020 BKN250 13/12 Q1022 BLU BLU TEMPO WHT
  • 170555Z 21004KT 9999 SCT020 BKN250 13/12 Q1022 WHT WHT BECMG BLU
  • 170535Z 20006KT 9999 SCT020 BKN250 14/12 Q1022 WHT WHT BECMG BLU
  • 170525Z 20006KT 9999 SCT020 BKN250 14/12 Q1022 WHT WHT TEMPO GRN
  • 170455Z 20005KT 9999 FEW018 SCT020 14/12 Q1022 WHT WHT TEMPO GRN

TAF TAF EBBE
Valid from the 17 at 07:00 until the 17 at 16:00 UTC


170541Z 1707/1716 25005KT 9999 FEW030 SCT250
TEMPO 1707/1708 5000 BR SCT020
BECMG 1715/1716 05005KT
No reported NOTAMs for that airfield.



MET'MAP, your aeronautical weather chart ! - Copyright ORBIFLY December 2007 - Disclaimer

ORBIFLY MET'MAP TEAM :

Programming & Development : Alexandra Zaïnal
Concept & Development : Baudouin d'Aumeries
Co-Development & Prog : Marc-Olivier Méhu
Technical & hardware support : Manuel Goepfert

Contact : metmap@orbifly.com




SOURCES & CREDITS :

   NOAA